sensor_id;sensor_type;location;lat;lon;timestamp;P1;durP1;ratioP1;P2;durP2;ratioP2
3991;SDS011;2010;48.194;16.394;2023-11-19T00:02:04;10.00;;;7.30;;
3991;SDS011;2010;48.194;16.394;2023-11-19T00:04:37;10.50;;;7.40;;
3991;SDS011;2010;48.194;16.394;2023-11-19T00:07:25;11.13;;;8.07;;
3991;SDS011;2010;48.194;16.394;2023-11-19T00:10:03;11.03;;;8.33;;
3991;SDS011;2010;48.194;16.394;2023-11-19T00:12:41;12.17;;;8.20;;
3991;SDS011;2010;48.194;16.394;2023-11-19T00:15:11;10.40;;;7.80;;
3991;SDS011;2010;48.194;16.394;2023-11-19T00:17:42;9.30;;;7.60;;
3991;SDS011;2010;48.194;16.394;2023-11-19T00:20:18;9.67;;;7.60;;
3991;SDS011;2010;48.194;16.394;2023-11-19T00:22:52;9.60;;;7.20;;
3991;SDS011;2010;48.194;16.394;2023-11-19T00:25:29;9.60;;;6.20;;
3991;SDS011;2010;48.194;16.394;2023-11-19T00:28:00;6.70;;;6.07;;
3991;SDS011;2010;48.194;16.394;2023-11-19T00:30:35;10.27;;;7.33;;
3991;SDS011;2010;48.194;16.394;2023-11-19T00:33:03;8.47;;;7.23;;
3991;SDS011;2010;48.194;16.394;2023-11-19T00:35:34;12.23;;;7.53;;
3991;SDS011;2010;48.194;16.394;2023-11-19T00:38:07;8.57;;;6.47;;
3991;SDS011;2010;48.194;16.394;2023-11-19T00:40:45;8.90;;;7.20;;
3991;SDS011;2010;48.194;16.394;2023-11-19T00:43:15;11.33;;;6.67;;
3991;SDS011;2010;48.194;16.394;2023-11-19T00:45:44;12.43;;;6.00;;
3991;SDS011;2010;48.194;16.394;2023-11-19T00:48:13;9.33;;;6.63;;
3991;SDS011;2010;48.194;16.394;2023-11-19T00:50:52;8.50;;;6.23;;
3991;SDS011;2010;48.194;16.394;2023-11-19T00:53:29;9.47;;;6.00;;
3991;SDS011;2010;48.194;16.394;2023-11-19T00:56:01;7.97;;;6.80;;
3991;SDS011;2010;48.194;16.394;2023-11-19T00:58:41;8.13;;;7.20;;
3991;SDS011;2010;48.194;16.394;2023-11-19T01:01:19;10.00;;;6.97;;
3991;SDS011;2010;48.194;16.394;2023-11-19T01:03:49;10.27;;;7.30;;
3991;SDS011;2010;48.194;16.394;2023-11-19T01:06:27;9.10;;;6.97;;
3991;SDS011;2010;48.194;16.394;2023-11-19T01:09:05;7.73;;;6.23;;
3991;SDS011;2010;48.194;16.394;2023-11-19T01:11:35;10.60;;;7.13;;
3991;SDS011;2010;48.194;16.394;2023-11-19T01:14:09;7.60;;;5.73;;
3991;SDS011;2010;48.194;16.394;2023-11-19T01:16:46;9.33;;;6.87;;
3991;SDS011;2010;48.194;16.394;2023-11-19T01:19:17;6.97;;;6.00;;
3991;SDS011;2010;48.194;16.394;2023-11-19T01:21:47;9.07;;;6.93;;
3991;SDS011;2010;48.194;16.394;2023-11-19T01:24:18;7.47;;;6.47;;
3991;SDS011;2010;48.194;16.394;2023-11-19T01:26:49;10.90;;;6.47;;
3991;SDS011;2010;48.194;16.394;2023-11-19T01:29:20;8.07;;;6.53;;
3991;SDS011;2010;48.194;16.394;2023-11-19T01:31:48;7.57;;;6.10;;
3991;SDS011;2010;48.194;16.394;2023-11-19T01:34:20;7.00;;;6.10;;
3991;SDS011;2010;48.194;16.394;2023-11-19T01:36:51;6.10;;;5.50;;
3991;SDS011;2010;48.194;16.394;2023-11-19T01:39:26;7.60;;;6.20;;
3991;SDS011;2010;48.194;16.394;2023-11-19T01:41:55;7.77;;;6.77;;
3991;SDS011;2010;48.194;16.394;2023-11-19T01:44:25;9.73;;;6.23;;
3991;SDS011;2010;48.194;16.394;2023-11-19T01:46:55;7.50;;;6.30;;
3991;SDS011;2010;48.194;16.394;2023-11-19T01:49:31;7.10;;;6.23;;
3991;SDS011;2010;48.194;16.394;2023-11-19T01:52:00;7.57;;;5.77;;
3991;SDS011;2010;48.194;16.394;2023-11-19T01:54:37;8.27;;;5.53;;
3991;SDS011;2010;48.194;16.394;2023-11-19T01:57:05;6.90;;;5.97;;
3991;SDS011;2010;48.194;16.394;2023-11-19T01:59:36;7.90;;;6.07;;
3991;SDS011;2010;48.194;16.394;2023-11-19T02:02:08;11.90;;;5.90;;
3991;SDS011;2010;48.194;16.394;2023-11-19T02:04:38;8.43;;;6.70;;
3991;SDS011;2010;48.194;16.394;2023-11-19T02:07:12;11.70;;;8.07;;
3991;SDS011;2010;48.194;16.394;2023-11-19T02:09:44;13.20;;;8.70;;
3991;SDS011;2010;48.194;16.394;2023-11-19T02:12:12;11.40;;;8.50;;
3991;SDS011;2010;48.194;16.394;2023-11-19T02:14:42;12.97;;;8.57;;
3991;SDS011;2010;48.194;16.394;2023-11-19T02:17:24;9.47;;;7.13;;
3991;SDS011;2010;48.194;16.394;2023-11-19T02:20:01;7.47;;;6.07;;
3991;SDS011;2010;48.194;16.394;2023-11-19T02:22:34;8.50;;;7.40;;
3991;SDS011;2010;48.194;16.394;2023-11-19T02:25:22;10.97;;;7.70;;
3991;SDS011;2010;48.194;16.394;2023-11-19T02:28:05;10.90;;;8.23;;
3991;SDS011;2010;48.194;16.394;2023-11-19T02:30:40;8.73;;;6.77;;
3991;SDS011;2010;48.194;16.394;2023-11-19T02:33:17;8.70;;;7.07;;
3991;SDS011;2010;48.194;16.394;2023-11-19T02:35:56;9.90;;;7.70;;
3991;SDS011;2010;48.194;16.394;2023-11-19T02:38:27;9.17;;;7.87;;
3991;SDS011;2010;48.194;16.394;2023-11-19T02:40:56;9.20;;;7.43;;
3991;SDS011;2010;48.194;16.394;2023-11-19T02:43:34;6.07;;;5.53;;
3991;SDS011;2010;48.194;16.394;2023-11-19T02:46:06;7.30;;;6.20;;
3991;SDS011;2010;48.194;16.394;2023-11-19T02:48:39;6.30;;;5.70;;
3991;SDS011;2010;48.194;16.394;2023-11-19T02:51:12;6.00;;;5.40;;
3991;SDS011;2010;48.194;16.394;2023-11-19T02:53:44;5.60;;;5.10;;
3991;SDS011;2010;48.194;16.394;2023-11-19T02:56:16;5.63;;;5.23;;
3991;SDS011;2010;48.194;16.394;2023-11-19T02:58:54;6.13;;;5.53;;
3991;SDS011;2010;48.194;16.394;2023-11-19T03:01:24;6.40;;;5.80;;
3991;SDS011;2010;48.194;16.394;2023-11-19T03:04:00;6.33;;;5.73;;
3991;SDS011;2010;48.194;16.394;2023-11-19T03:06:33;6.57;;;5.90;;
3991;SDS011;2010;48.194;16.394;2023-11-19T03:09:03;6.30;;;5.70;;
3991;SDS011;2010;48.194;16.394;2023-11-19T03:11:45;6.03;;;5.43;;
3991;SDS011;2010;48.194;16.394;2023-11-19T03:14:17;7.30;;;5.27;;
3991;SDS011;2010;48.194;16.394;2023-11-19T03:16:58;7.20;;;5.50;;
3991;SDS011;2010;48.194;16.394;2023-11-19T03:19:29;7.10;;;5.00;;
3991;SDS011;2010;48.194;16.394;2023-11-19T03:21:58;9.90;;;5.50;;
3991;SDS011;2010;48.194;16.394;2023-11-19T03:24:28;5.67;;;5.20;;
3991;SDS011;2010;48.194;16.394;2023-11-19T03:26:57;6.10;;;5.50;;
3991;SDS011;2010;48.194;16.394;2023-11-19T03:29:29;6.33;;;5.73;;
3991;SDS011;2010;48.194;16.394;2023-11-19T03:31:59;6.20;;;5.33;;
3991;SDS011;2010;48.194;16.394;2023-11-19T03:34:31;6.00;;;5.50;;
3991;SDS011;2010;48.194;16.394;2023-11-19T03:37:14;5.83;;;5.23;;
3991;SDS011;2010;48.194;16.394;2023-11-19T03:39:51;5.67;;;5.17;;
3991;SDS011;2010;48.194;16.394;2023-11-19T03:42:22;8.60;;;5.73;;
3991;SDS011;2010;48.194;16.394;2023-11-19T03:44:55;5.00;;;4.60;;
3991;SDS011;2010;48.194;16.394;2023-11-19T03:47:25;5.70;;;5.20;;
3991;SDS011;2010;48.194;16.394;2023-11-19T03:49:54;5.90;;;5.30;;
3991;SDS011;2010;48.194;16.394;2023-11-19T03:52:24;5.30;;;4.80;;
3991;SDS011;2010;48.194;16.394;2023-11-19T03:54:54;4.70;;;4.30;;
3991;SDS011;2010;48.194;16.394;2023-11-19T03:57:24;6.63;;;4.93;;
3991;SDS011;2010;48.194;16.394;2023-11-19T04:00:09;4.37;;;3.97;;
3991;SDS011;2010;48.194;16.394;2023-11-19T04:02:41;4.03;;;3.73;;
3991;SDS011;2010;48.194;16.394;2023-11-19T04:05:12;5.73;;;5.20;;
3991;SDS011;2010;48.194;16.394;2023-11-19T04:07:45;5.50;;;5.00;;
3991;SDS011;2010;48.194;16.394;2023-11-19T04:10:15;5.20;;;4.80;;
3991;SDS011;2010;48.194;16.394;2023-11-19T04:12:47;5.37;;;4.97;;
3991;SDS011;2010;48.194;16.394;2023-11-19T04:15:30;4.47;;;4.07;;
3991;SDS011;2010;48.194;16.394;2023-11-19T04:18:05;5.27;;;4.87;;
3991;SDS011;2010;48.194;16.394;2023-11-19T04:20:36;5.40;;;4.90;;
3991;SDS011;2010;48.194;16.394;2023-11-19T04:23:12;6.10;;;5.20;;
3991;SDS011;2010;48.194;16.394;2023-11-19T04:25:52;4.20;;;3.90;;
3991;SDS011;2010;48.194;16.394;2023-11-19T04:28:37;5.80;;;5.27;;
3991;SDS011;2010;48.194;16.394;2023-11-19T04:31:07;5.50;;;5.00;;
3991;SDS011;2010;48.194;16.394;2023-11-19T04:33:39;5.87;;;5.37;;
3991;SDS011;2010;48.194;16.394;2023-11-19T04:36:10;6.67;;;5.80;;
3991;SDS011;2010;48.194;16.394;2023-11-19T04:38:41;5.93;;;5.40;;
3991;SDS011;2010;48.194;16.394;2023-11-19T04:41:12;5.57;;;5.07;;
3991;SDS011;2010;48.194;16.394;2023-11-19T04:43:50;5.93;;;5.33;;
3991;SDS011;2010;48.194;16.394;2023-11-19T04:46:22;5.43;;;4.93;;
3991;SDS011;2010;48.194;16.394;2023-11-19T04:48:53;6.30;;;5.03;;
3991;SDS011;2010;48.194;16.394;2023-11-19T04:51:24;6.00;;;5.33;;
3991;SDS011;2010;48.194;16.394;2023-11-19T04:53:55;6.47;;;5.77;;
3991;SDS011;2010;48.194;16.394;2023-11-19T04:56:27;6.73;;;5.70;;
3991;SDS011;2010;48.194;16.394;2023-11-19T04:58:58;5.63;;;5.13;;
3991;SDS011;2010;48.194;16.394;2023-11-19T05:01:32;6.57;;;5.97;;
3991;SDS011;2010;48.194;16.394;2023-11-19T05:04:03;5.60;;;5.10;;
3991;SDS011;2010;48.194;16.394;2023-11-19T05:06:35;6.60;;;6.00;;
3991;SDS011;2010;48.194;16.394;2023-11-19T05:09:12;6.00;;;5.33;;
3991;SDS011;2010;48.194;16.394;2023-11-19T05:11:53;7.10;;;5.83;;
3991;SDS011;2010;48.194;16.394;2023-11-19T05:14:25;6.37;;;5.73;;
3991;SDS011;2010;48.194;16.394;2023-11-19T05:16:58;7.00;;;6.30;;
3991;SDS011;2010;48.194;16.394;2023-11-19T05:19:29;6.50;;;5.87;;
3991;SDS011;2010;48.194;16.394;2023-11-19T05:22:06;7.20;;;6.47;;
3991;SDS011;2010;48.194;16.394;2023-11-19T05:24:36;7.87;;;6.40;;
3991;SDS011;2010;48.194;16.394;2023-11-19T05:27:07;6.60;;;6.00;;
3991;SDS011;2010;48.194;16.394;2023-11-19T05:29:37;9.07;;;6.57;;
3991;SDS011;2010;48.194;16.394;2023-11-19T05:32:09;9.23;;;6.60;;
3991;SDS011;2010;48.194;16.394;2023-11-19T05:34:39;7.20;;;6.50;;
3991;SDS011;2010;48.194;16.394;2023-11-19T05:37:12;8.23;;;7.20;;
3991;SDS011;2010;48.194;16.394;2023-11-19T05:39:42;8.00;;;7.20;;
3991;SDS011;2010;48.194;16.394;2023-11-19T05:42:13;8.20;;;7.40;;
3991;SDS011;2010;48.194;16.394;2023-11-19T05:44:46;8.40;;;7.50;;
3991;SDS011;2010;48.194;16.394;2023-11-19T05:47:36;7.70;;;6.53;;
3991;SDS011;2010;48.194;16.394;2023-11-19T05:50:10;9.07;;;6.83;;
3991;SDS011;2010;48.194;16.394;2023-11-19T05:52:45;10.20;;;7.53;;
3991;SDS011;2010;48.194;16.394;2023-11-19T05:55:22;9.90;;;7.00;;
3991;SDS011;2010;48.194;16.394;2023-11-19T05:57:55;7.50;;;6.70;;
3991;SDS011;2010;48.194;16.394;2023-11-19T06:00:24;7.97;;;6.63;;
3991;SDS011;2010;48.194;16.394;2023-11-19T06:03:07;7.57;;;6.87;;
3991;SDS011;2010;48.194;16.394;2023-11-19T06:05:39;9.77;;;7.30;;
3991;SDS011;2010;48.194;16.394;2023-11-19T06:08:07;11.10;;;7.40;;
3991;SDS011;2010;48.194;16.394;2023-11-19T06:10:36;12.90;;;7.53;;
3991;SDS011;2010;48.194;16.394;2023-11-19T06:13:13;7.50;;;6.70;;
3991;SDS011;2010;48.194;16.394;2023-11-19T06:15:53;9.10;;;7.37;;
3991;SDS011;2010;48.194;16.394;2023-11-19T06:18:31;8.90;;;6.90;;
3991;SDS011;2010;48.194;16.394;2023-11-19T06:21:02;7.57;;;6.87;;
3991;SDS011;2010;48.194;16.394;2023-11-19T06:23:32;9.23;;;6.93;;
3991;SDS011;2010;48.194;16.394;2023-11-19T06:26:08;9.47;;;7.63;;
3991;SDS011;2010;48.194;16.394;2023-11-19T06:28:37;8.73;;;7.43;;
3991;SDS011;2010;48.194;16.394;2023-11-19T06:31:14;7.60;;;6.80;;
3991;SDS011;2010;48.194;16.394;2023-11-19T06:33:55;8.43;;;7.37;;
3991;SDS011;2010;48.194;16.394;2023-11-19T06:36:24;8.00;;;7.20;;
3991;SDS011;2010;48.194;16.394;2023-11-19T06:38:58;8.67;;;7.80;;
3991;SDS011;2010;48.194;16.394;2023-11-19T06:41:29;8.53;;;7.30;;
3991;SDS011;2010;48.194;16.394;2023-11-19T06:44:00;9.70;;;7.70;;
3991;SDS011;2010;48.194;16.394;2023-11-19T06:46:32;7.17;;;6.47;;
3991;SDS011;2010;48.194;16.394;2023-11-19T06:49:04;7.40;;;6.70;;
3991;SDS011;2010;48.194;16.394;2023-11-19T06:51:41;8.33;;;7.50;;
3991;SDS011;2010;48.194;16.394;2023-11-19T06:54:12;9.13;;;7.47;;
3991;SDS011;2010;48.194;16.394;2023-11-19T06:56:43;9.20;;;7.50;;
3991;SDS011;2010;48.194;16.394;2023-11-19T06:59:15;8.80;;;7.93;;
3991;SDS011;2010;48.194;16.394;2023-11-19T07:01:54;9.30;;;7.97;;
3991;SDS011;2010;48.194;16.394;2023-11-19T07:04:27;9.40;;;8.27;;
3991;SDS011;2010;48.194;16.394;2023-11-19T07:06:57;9.50;;;7.73;;
3991;SDS011;2010;48.194;16.394;2023-11-19T07:09:32;10.63;;;7.33;;
3991;SDS011;2010;48.194;16.394;2023-11-19T07:12:09;8.20;;;7.33;;
3991;SDS011;2010;48.194;16.394;2023-11-19T07:14:40;9.97;;;7.60;;
3991;SDS011;2010;48.194;16.394;2023-11-19T07:17:16;9.70;;;8.03;;
3991;SDS011;2010;48.194;16.394;2023-11-19T07:19:53;8.70;;;7.70;;
3991;SDS011;2010;48.194;16.394;2023-11-19T07:22:29;11.63;;;8.23;;
3991;SDS011;2010;48.194;16.394;2023-11-19T07:25:06;8.73;;;7.50;;
3991;SDS011;2010;48.194;16.394;2023-11-19T07:27:38;10.20;;;8.00;;
3991;SDS011;2010;48.194;16.394;2023-11-19T07:30:14;13.13;;;10.20;;
3991;SDS011;2010;48.194;16.394;2023-11-19T07:32:47;10.83;;;8.87;;
3991;SDS011;2010;48.194;16.394;2023-11-19T07:35:21;8.70;;;7.43;;
3991;SDS011;2010;48.194;16.394;2023-11-19T07:37:52;8.27;;;7.47;;
3991;SDS011;2010;48.194;16.394;2023-11-19T07:40:23;8.73;;;7.30;;
3991;SDS011;2010;48.194;16.394;2023-11-19T07:42:57;9.40;;;7.87;;
3991;SDS011;2010;48.194;16.394;2023-11-19T07:45:27;9.13;;;8.23;;
3991;SDS011;2010;48.194;16.394;2023-11-19T07:47:56;8.77;;;7.87;;
3991;SDS011;2010;48.194;16.394;2023-11-19T07:50:30;8.30;;;7.47;;
3991;SDS011;2010;48.194;16.394;2023-11-19T07:52:59;8.53;;;6.87;;
3991;SDS011;2010;48.194;16.394;2023-11-19T07:55:31;8.50;;;7.60;;
3991;SDS011;2010;48.194;16.394;2023-11-19T07:58:00;7.77;;;6.93;;
3991;SDS011;2010;48.194;16.394;2023-11-19T08:00:30;7.93;;;7.13;;
3991;SDS011;2010;48.194;16.394;2023-11-19T08:03:08;9.73;;;7.70;;
3991;SDS011;2010;48.194;16.394;2023-11-19T08:05:52;7.70;;;6.90;;
3991;SDS011;2010;48.194;16.394;2023-11-19T08:08:26;8.07;;;6.83;;
3991;SDS011;2010;48.194;16.394;2023-11-19T08:10:57;7.03;;;6.10;;
3991;SDS011;2010;48.194;16.394;2023-11-19T08:13:26;7.40;;;6.70;;
3991;SDS011;2010;48.194;16.394;2023-11-19T08:15:55;7.80;;;6.90;;
3991;SDS011;2010;48.194;16.394;2023-11-19T08:18:26;9.23;;;7.40;;
3991;SDS011;2010;48.194;16.394;2023-11-19T08:20:59;9.50;;;7.57;;
3991;SDS011;2010;48.194;16.394;2023-11-19T08:23:32;8.03;;;6.90;;
3991;SDS011;2010;48.194;16.394;2023-11-19T08:26:00;7.00;;;6.30;;
3991;SDS011;2010;48.194;16.394;2023-11-19T08:28:29;7.97;;;7.17;;
3991;SDS011;2010;48.194;16.394;2023-11-19T08:30:58;9.10;;;6.93;;
3991;SDS011;2010;48.194;16.394;2023-11-19T08:33:38;7.17;;;5.70;;
3991;SDS011;2010;48.194;16.394;2023-11-19T08:36:18;6.97;;;6.17;;
3991;SDS011;2010;48.194;16.394;2023-11-19T08:38:49;8.60;;;7.10;;
3991;SDS011;2010;48.194;16.394;2023-11-19T08:41:20;7.17;;;6.47;;
3991;SDS011;2010;48.194;16.394;2023-11-19T08:43:52;7.70;;;7.00;;
3991;SDS011;2010;48.194;16.394;2023-11-19T08:46:21;9.23;;;6.40;;
3991;SDS011;2010;48.194;16.394;2023-11-19T08:48:54;6.63;;;5.93;;
3991;SDS011;2010;48.194;16.394;2023-11-19T08:51:25;6.27;;;5.63;;
3991;SDS011;2010;48.194;16.394;2023-11-19T08:53:54;7.73;;;5.43;;
3991;SDS011;2010;48.194;16.394;2023-11-19T08:56:25;6.53;;;5.93;;
3991;SDS011;2010;48.194;16.394;2023-11-19T08:59:03;6.60;;;5.90;;
3991;SDS011;2010;48.194;16.394;2023-11-19T09:01:31;6.10;;;5.50;;
3991;SDS011;2010;48.194;16.394;2023-11-19T09:04:03;7.17;;;6.47;;
3991;SDS011;2010;48.194;16.394;2023-11-19T09:06:36;5.93;;;5.33;;
3991;SDS011;2010;48.194;16.394;2023-11-19T09:09:06;7.83;;;6.13;;
3991;SDS011;2010;48.194;16.394;2023-11-19T09:11:42;7.50;;;6.40;;
3991;SDS011;2010;48.194;16.394;2023-11-19T09:14:11;6.10;;;5.47;;
3991;SDS011;2010;48.194;16.394;2023-11-19T09:16:45;5.87;;;5.37;;
3991;SDS011;2010;48.194;16.394;2023-11-19T09:19:16;6.90;;;6.30;;
3991;SDS011;2010;48.194;16.394;2023-11-19T09:21:52;6.93;;;6.23;;
3991;SDS011;2010;48.194;16.394;2023-11-19T09:24:22;6.40;;;5.80;;
3991;SDS011;2010;48.194;16.394;2023-11-19T09:26:50;6.17;;;5.57;;
3991;SDS011;2010;48.194;16.394;2023-11-19T09:29:22;5.53;;;5.03;;
3991;SDS011;2010;48.194;16.394;2023-11-19T09:32:00;5.63;;;5.13;;
3991;SDS011;2010;48.194;16.394;2023-11-19T09:34:34;6.23;;;5.63;;
3991;SDS011;2010;48.194;16.394;2023-11-19T09:37:09;5.80;;;5.13;;
3991;SDS011;2010;48.194;16.394;2023-11-19T09:39:46;5.37;;;4.83;;
3991;SDS011;2010;48.194;16.394;2023-11-19T09:42:15;5.47;;;4.90;;
3991;SDS011;2010;48.194;16.394;2023-11-19T09:44:48;5.90;;;4.73;;
3991;SDS011;2010;48.194;16.394;2023-11-19T09:47:19;5.50;;;5.00;;
3991;SDS011;2010;48.194;16.394;2023-11-19T09:49:49;5.27;;;4.87;;
3991;SDS011;2010;48.194;16.394;2023-11-19T09:52:28;4.90;;;4.50;;
3991;SDS011;2010;48.194;16.394;2023-11-19T09:54:58;5.40;;;4.90;;
3991;SDS011;2010;48.194;16.394;2023-11-19T09:57:34;5.20;;;4.80;;
3991;SDS011;2010;48.194;16.394;2023-11-19T10:00:12;5.87;;;5.27;;
3991;SDS011;2010;48.194;16.394;2023-11-19T10:02:50;5.20;;;4.77;;
3991;SDS011;2010;48.194;16.394;2023-11-19T10:05:22;5.00;;;4.60;;
3991;SDS011;2010;48.194;16.394;2023-11-19T10:08:13;5.77;;;5.27;;
3991;SDS011;2010;48.194;16.394;2023-11-19T10:10:49;5.40;;;4.90;;
3991;SDS011;2010;48.194;16.394;2023-11-19T10:13:19;5.60;;;5.10;;
3991;SDS011;2010;48.194;16.394;2023-11-19T10:15:57;5.40;;;4.90;;
3991;SDS011;2010;48.194;16.394;2023-11-19T10:18:28;5.90;;;5.10;;
3991;SDS011;2010;48.194;16.394;2023-11-19T10:21:08;5.43;;;4.87;;
3991;SDS011;2010;48.194;16.394;2023-11-19T10:23:54;6.20;;;5.10;;
3991;SDS011;2010;48.194;16.394;2023-11-19T10:26:31;4.70;;;4.30;;
3991;SDS011;2010;48.194;16.394;2023-11-19T10:29:02;6.17;;;4.63;;
3991;SDS011;2010;48.194;16.394;2023-11-19T10:31:35;5.67;;;5.17;;
3991;SDS011;2010;48.194;16.394;2023-11-19T10:34:11;5.27;;;4.40;;
3991;SDS011;2010;48.194;16.394;2023-11-19T10:36:56;6.20;;;5.60;;
3991;SDS011;2010;48.194;16.394;2023-11-19T10:39:50;6.20;;;5.53;;
3991;SDS011;2010;48.194;16.394;2023-11-19T10:42:21;5.30;;;4.80;;
3991;SDS011;2010;48.194;16.394;2023-11-19T10:44:50;8.97;;;7.40;;
3991;SDS011;2010;48.194;16.394;2023-11-19T10:47:19;9.70;;;8.17;;
3991;SDS011;2010;48.194;16.394;2023-11-19T10:50:05;9.57;;;7.07;;
3991;SDS011;2010;48.194;16.394;2023-11-19T10:52:41;7.57;;;6.80;;
3991;SDS011;2010;48.194;16.394;2023-11-19T10:55:12;6.40;;;5.80;;
3991;SDS011;2010;48.194;16.394;2023-11-19T10:57:46;7.93;;;6.50;;
3991;SDS011;2010;48.194;16.394;2023-11-19T11:00:17;6.00;;;5.40;;
3991;SDS011;2010;48.194;16.394;2023-11-19T11:02:49;6.63;;;6.03;;
3991;SDS011;2010;48.194;16.394;2023-11-19T11:05:23;7.73;;;5.83;;
3991;SDS011;2010;48.194;16.394;2023-11-19T11:07:55;4.50;;;4.10;;
3991;SDS011;2010;48.194;16.394;2023-11-19T11:10:30;5.10;;;4.60;;
3991;SDS011;2010;48.194;16.394;2023-11-19T11:13:03;5.20;;;4.73;;
3991;SDS011;2010;48.194;16.394;2023-11-19T11:15:33;5.90;;;5.07;;
3991;SDS011;2010;48.194;16.394;2023-11-19T11:18:05;5.77;;;5.10;;
3991;SDS011;2010;48.194;16.394;2023-11-19T11:20:40;6.33;;;5.83;;
3991;SDS011;2010;48.194;16.394;2023-11-19T11:23:16;6.00;;;5.50;;
3991;SDS011;2010;48.194;16.394;2023-11-19T11:26:13;5.73;;;5.30;;
3991;SDS011;2010;48.194;16.394;2023-11-19T11:28:56;5.63;;;5.03;;
3991;SDS011;2010;48.194;16.394;2023-11-19T11:31:39;6.27;;;4.93;;
3991;SDS011;2010;48.194;16.394;2023-11-19T11:34:19;5.90;;;5.40;;
3991;SDS011;2010;48.194;16.394;2023-11-19T11:37:18;6.13;;;5.53;;
3991;SDS011;2010;48.194;16.394;2023-11-19T11:39:50;5.93;;;5.40;;
3991;SDS011;2010;48.194;16.394;2023-11-19T11:42:45;6.90;;;6.30;;
3991;SDS011;2010;48.194;16.394;2023-11-19T11:45:15;6.10;;;5.50;;
3991;SDS011;2010;48.194;16.394;2023-11-19T11:50:52;6.57;;;5.80;;
3991;SDS011;2010;48.194;16.394;2023-11-19T11:53:24;6.57;;;5.90;;
3991;SDS011;2010;48.194;16.394;2023-11-19T11:55:57;6.47;;;5.90;;
3991;SDS011;2010;48.194;16.394;2023-11-19T11:58:41;8.80;;;6.80;;
3991;SDS011;2010;48.194;16.394;2023-11-19T12:01:15;7.00;;;6.40;;
3991;SDS011;2010;48.194;16.394;2023-11-19T12:03:55;7.90;;;7.10;;
3991;SDS011;2010;48.194;16.394;2023-11-19T12:06:26;7.47;;;6.77;;
3991;SDS011;2010;48.194;16.394;2023-11-19T12:08:59;7.03;;;6.37;;
3991;SDS011;2010;48.194;16.394;2023-11-19T12:11:36;7.57;;;6.50;;
3991;SDS011;2010;48.194;16.394;2023-11-19T12:14:08;7.00;;;6.07;;
3991;SDS011;2010;48.194;16.394;2023-11-19T12:16:36;6.87;;;6.20;;
3991;SDS011;2010;48.194;16.394;2023-11-19T12:19:12;9.17;;;8.27;;
3991;SDS011;2010;48.194;16.394;2023-11-19T12:21:42;10.83;;;8.90;;
3991;SDS011;2010;48.194;16.394;2023-11-19T12:24:21;11.60;;;8.73;;
3991;SDS011;2010;48.194;16.394;2023-11-19T12:26:53;9.30;;;8.07;;
3991;SDS011;2010;48.194;16.394;2023-11-19T12:29:29;7.67;;;7.00;;
3991;SDS011;2010;48.194;16.394;2023-11-19T12:32:13;8.73;;;6.93;;
3991;SDS011;2010;48.194;16.394;2023-11-19T12:34:42;8.53;;;6.80;;
3991;SDS011;2010;48.194;16.394;2023-11-19T12:37:15;7.13;;;6.43;;
3991;SDS011;2010;48.194;16.394;2023-11-19T12:39:45;7.70;;;6.90;;
3991;SDS011;2010;48.194;16.394;2023-11-19T12:42:17;8.80;;;7.90;;
3991;SDS011;2010;48.194;16.394;2023-11-19T12:45:01;7.67;;;6.83;;
3991;SDS011;2010;48.194;16.394;2023-11-19T12:47:34;7.70;;;6.90;;
3991;SDS011;2010;48.194;16.394;2023-11-19T12:50:10;6.90;;;5.93;;
3991;SDS011;2010;48.194;16.394;2023-11-19T12:52:39;7.73;;;6.60;;
3991;SDS011;2010;48.194;16.394;2023-11-19T12:55:24;9.83;;;7.20;;
3991;SDS011;2010;48.194;16.394;2023-11-19T12:57:57;8.43;;;7.53;;
3991;SDS011;2010;48.194;16.394;2023-11-19T13:00:41;7.97;;;7.10;;
3991;SDS011;2010;48.194;16.394;2023-11-19T13:03:09;8.13;;;7.30;;
3991;SDS011;2010;48.194;16.394;2023-11-19T13:05:39;8.50;;;7.70;;
3991;SDS011;2010;48.194;16.394;2023-11-19T13:08:10;9.00;;;7.07;;
3991;SDS011;2010;48.194;16.394;2023-11-19T13:10:50;11.63;;;6.67;;
3991;SDS011;2010;48.194;16.394;2023-11-19T13:13:21;9.20;;;7.03;;
3991;SDS011;2010;48.194;16.394;2023-11-19T13:15:55;9.63;;;7.63;;
3991;SDS011;2010;48.194;16.394;2023-11-19T13:18:32;10.40;;;8.87;;
3991;SDS011;2010;48.194;16.394;2023-11-19T13:21:06;9.17;;;7.80;;
3991;SDS011;2010;48.194;16.394;2023-11-19T13:23:39;8.30;;;7.27;;
3991;SDS011;2010;48.194;16.394;2023-11-19T13:26:18;9.33;;;7.63;;
3991;SDS011;2010;48.194;16.394;2023-11-19T13:29:00;9.40;;;7.87;;
3991;SDS011;2010;48.194;16.394;2023-11-19T13:31:35;12.93;;;9.00;;
3991;SDS011;2010;48.194;16.394;2023-11-19T13:34:10;10.20;;;8.83;;
3991;SDS011;2010;48.194;16.394;2023-11-19T13:36:44;11.30;;;9.30;;
3991;SDS011;2010;48.194;16.394;2023-11-19T13:39:16;10.50;;;8.40;;
3991;SDS011;2010;48.194;16.394;2023-11-19T13:41:50;8.83;;;7.93;;
3991;SDS011;2010;48.194;16.394;2023-11-19T13:44:40;10.43;;;8.57;;
3991;SDS011;2010;48.194;16.394;2023-11-19T13:47:14;9.50;;;7.93;;
3991;SDS011;2010;48.194;16.394;2023-11-19T13:49:44;7.80;;;7.00;;
3991;SDS011;2010;48.194;16.394;2023-11-19T13:52:13;7.90;;;7.10;;
3991;SDS011;2010;48.194;16.394;2023-11-19T13:54:51;9.87;;;7.33;;
3991;SDS011;2010;48.194;16.394;2023-11-19T13:57:21;8.53;;;7.63;;
3991;SDS011;2010;48.194;16.394;2023-11-19T13:59:50;9.10;;;8.20;;
3991;SDS011;2010;48.194;16.394;2023-11-19T14:02:23;11.80;;;7.87;;
3991;SDS011;2010;48.194;16.394;2023-11-19T14:04:54;10.10;;;7.70;;
3991;SDS011;2010;48.194;16.394;2023-11-19T14:07:24;7.80;;;7.10;;
3991;SDS011;2010;48.194;16.394;2023-11-19T14:09:52;8.97;;;7.63;;
3991;SDS011;2010;48.194;16.394;2023-11-19T14:12:23;8.13;;;7.30;;
3991;SDS011;2010;48.194;16.394;2023-11-19T14:14:53;11.17;;;9.30;;
3991;SDS011;2010;48.194;16.394;2023-11-19T14:17:27;12.03;;;9.10;;
3991;SDS011;2010;48.194;16.394;2023-11-19T14:19:59;15.70;;;10.60;;
3991;SDS011;2010;48.194;16.394;2023-11-19T14:22:30;12.07;;;10.77;;
3991;SDS011;2010;48.194;16.394;2023-11-19T14:25:09;11.20;;;9.70;;
3991;SDS011;2010;48.194;16.394;2023-11-19T14:27:40;11.30;;;10.03;;
3991;SDS011;2010;48.194;16.394;2023-11-19T14:30:12;10.90;;;9.67;;
3991;SDS011;2010;48.194;16.394;2023-11-19T14:32:59;12.63;;;10.43;;
3991;SDS011;2010;48.194;16.394;2023-11-19T14:35:27;11.13;;;9.50;;
3991;SDS011;2010;48.194;16.394;2023-11-19T14:38:01;14.30;;;10.43;;
3991;SDS011;2010;48.194;16.394;2023-11-19T14:40:32;12.20;;;10.63;;
3991;SDS011;2010;48.194;16.394;2023-11-19T14:43:24;12.93;;;10.20;;
3991;SDS011;2010;48.194;16.394;2023-11-19T14:45:55;15.70;;;10.10;;
3991;SDS011;2010;48.194;16.394;2023-11-19T14:48:29;11.73;;;10.30;;
3991;SDS011;2010;48.194;16.394;2023-11-19T14:51:02;14.23;;;9.80;;
3991;SDS011;2010;48.194;16.394;2023-11-19T14:53:35;10.67;;;9.13;;
3991;SDS011;2010;48.194;16.394;2023-11-19T14:56:05;11.97;;;9.93;;
3991;SDS011;2010;48.194;16.394;2023-11-19T14:58:40;10.20;;;9.20;;
3991;SDS011;2010;48.194;16.394;2023-11-19T15:01:22;13.30;;;10.93;;
3991;SDS011;2010;48.194;16.394;2023-11-19T15:03:59;11.97;;;9.70;;
3991;SDS011;2010;48.194;16.394;2023-11-19T15:06:33;11.70;;;10.00;;
3991;SDS011;2010;48.194;16.394;2023-11-19T15:09:08;13.23;;;9.83;;
3991;SDS011;2010;48.194;16.394;2023-11-19T15:12:02;10.97;;;9.83;;
3991;SDS011;2010;48.194;16.394;2023-11-19T15:14:32;13.70;;;10.40;;
3991;SDS011;2010;48.194;16.394;2023-11-19T15:17:03;12.90;;;11.33;;
3991;SDS011;2010;48.194;16.394;2023-11-19T15:19:36;15.00;;;10.90;;
3991;SDS011;2010;48.194;16.394;2023-11-19T15:22:07;12.00;;;10.63;;
3991;SDS011;2010;48.194;16.394;2023-11-19T15:24:38;12.57;;;10.77;;
3991;SDS011;2010;48.194;16.394;2023-11-19T15:27:20;13.63;;;11.57;;
3991;SDS011;2010;48.194;16.394;2023-11-19T15:29:49;15.63;;;12.20;;
3991;SDS011;2010;48.194;16.394;2023-11-19T15:32:20;17.90;;;11.70;;
3991;SDS011;2010;48.194;16.394;2023-11-19T15:35:04;16.87;;;12.70;;
3991;SDS011;2010;48.194;16.394;2023-11-19T15:37:40;14.73;;;11.40;;
3991;SDS011;2010;48.194;16.394;2023-11-19T15:40:13;15.10;;;11.80;;
3991;SDS011;2010;48.194;16.394;2023-11-19T15:42:45;12.37;;;10.63;;